createdAt,value
2019-05-06T00:00:01.085Z,80.30
2019-05-06T00:02:29.491Z,80.10
2019-05-06T00:04:57.886Z,80.00
2019-05-06T00:07:26.311Z,79.80
2019-05-06T00:09:54.713Z,79.70
2019-05-06T00:12:23.949Z,79.50
2019-05-06T00:14:54.163Z,79.30
2019-05-06T00:17:23.935Z,79.20
2019-05-06T00:19:54.043Z,79.60
2019-05-06T00:22:23.795Z,79.40
2019-05-06T00:24:54.709Z,79.00
2019-05-06T00:27:24.915Z,78.70
2019-05-06T00:29:55.003Z,78.40
2019-05-06T00:32:24.307Z,77.90
2019-05-06T00:34:54.626Z,77.40
2019-05-06T00:37:24.126Z,77.60
2019-05-06T00:39:54.262Z,76.60
2019-05-06T00:42:24.664Z,76.40
2019-05-06T00:44:53.739Z,75.80
2019-05-06T00:47:24.116Z,75.70
2019-05-06T00:49:54.439Z,75.50
2019-05-06T00:52:23.928Z,75.40
2019-05-06T00:54:54.518Z,75.20
2019-05-06T00:57:24.439Z,75.20
2019-05-06T00:59:53.875Z,74.90
2019-05-06T01:02:23.440Z,74.70
2019-05-06T01:04:54.022Z,74.30
2019-05-06T01:07:23.657Z,74.60
2019-05-06T01:09:54.018Z,74.50
2019-05-06T01:12:24.015Z,74.40
2019-05-06T01:14:54.594Z,74.30
2019-05-06T01:17:24.345Z,74.50
2019-05-06T01:19:54.090Z,74.10
2019-05-06T01:22:24.666Z,73.80
2019-05-06T01:24:52.888Z,73.10
2019-05-06T01:27:23.658Z,73.00
2019-05-06T01:29:51.998Z,72.80
2019-05-06T01:32:20.417Z,72.40
2019-05-06T01:34:48.887Z,71.80
2019-05-06T01:37:23.983Z,71.40
2019-05-06T01:39:55.070Z,71.00
2019-05-06T01:42:25.138Z,71.30
2019-05-06T01:44:53.917Z,71.30
2019-05-06T01:47:23.767Z,71.20
2019-05-06T01:49:53.774Z,70.80
2019-05-06T01:52:24.074Z,70.90
2019-05-06T01:54:54.270Z,70.80
2019-05-06T01:57:24.408Z,71.10
2019-05-06T01:59:53.940Z,71.20
2019-05-06T02:02:23.897Z,71.60
2019-05-06T02:04:53.989Z,71.80
2019-05-06T02:07:24.169Z,71.90
2019-05-06T02:09:54.257Z,71.70
2019-05-06T02:12:24.546Z,71.80
2019-05-06T02:14:54.326Z,71.60
2019-05-06T02:17:23.905Z,71.90
2019-05-06T02:19:54.681Z,72.10
2019-05-06T02:22:24.674Z,72.20
2019-05-06T02:24:54.719Z,72.50
2019-05-06T02:27:24.771Z,72.50
2019-05-06T02:29:54.934Z,72.90
2019-05-06T02:32:30.822Z,73.00
2019-05-06T02:34:56.722Z,72.80
2019-05-06T02:37:26.785Z,73.00
2019-05-06T02:39:55.167Z,73.00
2019-05-06T02:42:24.044Z,73.00
2019-05-06T02:44:53.982Z,73.50
2019-05-06T02:47:24.540Z,73.90
2019-05-06T02:49:54.576Z,73.60
2019-05-06T02:52:23.135Z,74.00
2019-05-06T02:54:53.746Z,74.50
2019-05-06T02:57:23.812Z,74.60
2019-05-06T02:59:55.431Z,74.80
2019-05-06T03:02:38.081Z,74.70
2019-05-06T03:04:53.048Z,74.90
2019-05-06T03:07:24.265Z,75.00
2019-05-06T03:09:53.406Z,75.50
2019-05-06T03:12:22.889Z,76.40
2019-05-06T03:14:53.366Z,76.10
2019-05-06T03:17:23.416Z,76.40
2019-05-06T03:19:53.471Z,76.20
2019-05-06T03:22:27.509Z,75.60
2019-05-06T03:24:55.429Z,75.30
2019-05-06T03:27:24.002Z,75.10
2019-05-06T03:29:53.623Z,75.20
2019-05-06T03:32:29.928Z,75.30
2019-05-06T03:35:16.331Z,75.50
2019-05-06T03:37:23.926Z,76.00
2019-05-06T03:39:53.069Z,76.20
2019-05-06T03:42:22.982Z,76.10
2019-05-06T03:44:53.685Z,76.10
2019-05-06T03:47:23.886Z,76.00
2019-05-06T03:49:54.642Z,75.80
2019-05-06T03:52:23.630Z,76.40
2019-05-06T03:54:53.631Z,76.20
2019-05-06T03:57:23.974Z,75.70
2019-05-06T03:59:53.266Z,75.40
2019-05-06T04:02:24.093Z,75.50
2019-05-06T04:04:55.726Z,75.60
2019-05-06T04:07:23.371Z,76.00
2019-05-06T04:09:53.540Z,75.60
2019-05-06T04:12:24.526Z,75.60
2019-05-06T04:14:54.268Z,76.00
2019-05-06T04:17:25.423Z,76.50
2019-05-06T04:19:56.225Z,75.60
2019-05-06T04:22:26.472Z,75.60
2019-05-06T04:24:56.935Z,75.20
2019-05-06T04:27:30.075Z,75.00
2019-05-06T04:29:59.464Z,74.50
2019-05-06T04:32:27.907Z,74.80
2019-05-06T04:34:56.493Z,74.40
2019-05-06T04:37:24.895Z,74.20
2019-05-06T04:39:53.705Z,74.50
2019-05-06T04:42:26.331Z,74.30
2019-05-06T04:44:53.153Z,75.00
2019-05-06T04:47:24.152Z,75.00
2019-05-06T04:49:53.259Z,75.20
2019-05-06T04:52:22.870Z,74.50
2019-05-06T04:54:53.407Z,74.40
2019-05-06T04:57:23.745Z,73.20
2019-05-06T04:59:54.219Z,73.70
2019-05-06T05:02:23.079Z,73.70
2019-05-06T05:04:53.033Z,74.70
2019-05-06T05:07:22.444Z,74.80
2019-05-06T05:09:53.658Z,75.10
2019-05-06T05:12:23.933Z,75.20
2019-05-06T05:14:53.975Z,75.40
2019-05-06T05:17:24.108Z,75.00
2019-05-06T05:19:53.411Z,74.50
2019-05-06T05:22:22.044Z,72.90
2019-05-06T05:24:52.177Z,73.10
2019-05-06T05:27:21.927Z,72.00
2019-05-06T05:29:52.193Z,71.40
2019-05-06T05:32:22.459Z,71.40
2019-05-06T05:34:52.283Z,71.20
2019-05-06T05:37:22.702Z,70.00
2019-05-06T05:39:52.036Z,68.60
2019-05-06T05:42:22.391Z,67.90
2019-05-06T05:44:52.857Z,66.50
2019-05-06T05:47:22.074Z,65.70
2019-05-06T05:49:52.953Z,64.60
2019-05-06T05:52:22.256Z,63.30
2019-05-06T05:54:51.951Z,61.10
2019-05-06T05:57:24.439Z,60.40
2019-05-06T05:59:52.972Z,59.90
2019-05-06T06:02:22.462Z,57.60
2019-05-06T06:04:57.042Z,52.60
2019-05-06T06:07:22.934Z,49.30
2019-05-06T06:09:53.578Z,47.90
2019-05-06T06:12:23.019Z,46.70
2019-05-06T06:14:55.672Z,44.30
2019-05-06T06:17:25.034Z,42.20
2019-05-06T06:19:55.143Z,38.50
2019-05-06T06:22:25.559Z,34.40
2019-05-06T06:24:54.436Z,31.30
2019-05-06T06:27:23.014Z,28.60
2019-05-06T06:29:52.966Z,27.40
2019-05-06T06:32:23.483Z,25.90
2019-05-06T06:35:07.468Z,25.50
2019-05-06T06:37:25.386Z,25.40
2019-05-06T06:39:54.672Z,24.90
2019-05-06T06:42:23.322Z,24.70
2019-05-06T06:44:52.228Z,24.70
2019-05-06T06:47:22.451Z,24.30
2019-05-06T06:49:53.282Z,25.10
2019-05-06T06:52:23.189Z,24.90
2019-05-06T06:54:52.706Z,23.90
2019-05-06T06:57:23.461Z,23.90
2019-05-06T06:59:54.851Z,24.80
2019-05-06T07:02:25.560Z,24.50
2019-05-06T07:04:56.988Z,25.40
2019-05-06T07:07:40.274Z,25.60
2019-05-06T07:09:57.185Z,26.80
2019-05-06T07:12:25.610Z,31.00
2019-05-06T07:14:55.706Z,35.90
2019-05-06T07:17:24.122Z,40.20
2019-05-06T07:19:54.194Z,43.70
2019-05-06T07:22:24.227Z,46.80
2019-05-06T07:24:52.881Z,49.40
2019-05-06T07:27:23.839Z,51.80
2019-05-06T07:29:52.468Z,54.20
2019-05-06T07:32:23.048Z,55.40
2019-05-06T07:34:53.075Z,56.70
2019-05-06T07:37:22.102Z,58.00
2019-05-06T07:39:52.892Z,58.20
2019-05-06T07:42:22.865Z,57.80
2019-05-06T07:44:53.135Z,58.90
2019-05-06T07:47:24.077Z,59.80
2019-05-06T07:49:53.248Z,60.30
2019-05-06T07:52:23.068Z,60.00
2019-05-06T07:54:53.370Z,59.10
2019-05-06T07:57:22.242Z,57.80
2019-05-06T07:59:52.506Z,57.30
2019-05-06T08:02:22.907Z,58.20
2019-05-06T08:04:52.960Z,59.50
2019-05-06T08:07:22.458Z,61.60
2019-05-06T08:09:52.839Z,61.20
2019-05-06T08:12:22.237Z,61.10
2019-05-06T08:14:52.375Z,61.00
2019-05-06T08:17:23.919Z,61.30
2019-05-06T08:19:52.920Z,62.10
2019-05-06T08:22:23.164Z,60.90
2019-05-06T08:24:53.195Z,59.80
2019-05-06T08:27:22.815Z,58.90
2019-05-06T08:29:52.644Z,58.10
2019-05-06T08:32:22.750Z,56.70
2019-05-06T08:34:52.402Z,55.80
2019-05-06T08:37:24.338Z,55.70
2019-05-06T08:39:52.839Z,55.30
2019-05-06T08:42:22.416Z,53.90
2019-05-06T08:44:53.070Z,53.30
2019-05-06T08:47:22.671Z,52.80
2019-05-06T08:49:52.862Z,52.80
2019-05-06T08:52:22.974Z,52.70
2019-05-06T08:54:53.078Z,50.10
2019-05-06T08:57:22.832Z,49.70
2019-05-06T08:59:53.521Z,49.20
2019-05-06T09:02:23.352Z,50.80
2019-05-06T09:04:51.877Z,50.50
2019-05-06T09:07:23.890Z,49.10
2019-05-06T09:09:52.755Z,48.00
2019-05-06T09:12:22.329Z,47.50
2019-05-06T09:14:53.070Z,47.60
2019-05-06T09:17:22.662Z,46.80
2019-05-06T09:19:53.262Z,48.30
2019-05-06T09:22:23.515Z,46.00
2019-05-06T09:24:53.069Z,44.80
2019-05-06T09:27:23.939Z,45.50
2019-05-06T09:29:53.146Z,45.00
2019-05-06T09:32:23.228Z,46.30
2019-05-06T09:34:53.354Z,47.10
2019-05-06T09:37:24.089Z,49.00
2019-05-06T09:39:53.504Z,50.30
2019-05-06T09:42:23.037Z,50.30
2019-05-06T09:44:54.167Z,52.10
2019-05-06T09:47:24.190Z,53.80
2019-05-06T09:49:53.238Z,56.30
2019-05-06T09:52:23.191Z,58.10
2019-05-06T09:54:53.674Z,59.40
2019-05-06T09:57:24.034Z,60.10
2019-05-06T09:59:53.071Z,60.00
2019-05-06T10:02:23.095Z,59.50
2019-05-06T10:04:52.279Z,59.20
2019-05-06T10:07:22.693Z,59.00
2019-05-06T10:09:52.593Z,58.40
2019-05-06T10:12:21.317Z,58.70
2019-05-06T10:14:49.804Z,58.70
2019-05-06T10:17:18.302Z,58.00
2019-05-06T10:19:46.701Z,57.80
2019-05-06T10:22:15.095Z,58.50
2019-05-06T10:24:43.541Z,59.00
2019-05-06T10:27:23.847Z,59.30
2019-05-06T10:29:53.898Z,58.80
2019-05-06T10:32:24.036Z,59.30
2019-05-06T10:34:52.750Z,59.60
2019-05-06T10:37:25.870Z,59.60
2019-05-06T10:39:57.355Z,59.40
2019-05-06T10:42:28.837Z,58.50
2019-05-06T10:45:01.833Z,57.20
2019-05-06T10:47:30.438Z,56.10
2019-05-06T10:49:58.871Z,56.50
2019-05-06T10:52:28.894Z,59.10
2019-05-06T10:54:57.314Z,59.10
2019-05-06T10:57:27.431Z,60.00
2019-05-06T10:59:55.857Z,60.80
2019-05-06T11:02:25.911Z,60.30
2019-05-06T11:04:54.314Z,61.00
2019-05-06T11:07:31.278Z,60.00
2019-05-06T11:09:53.469Z,60.20
2019-05-06T11:12:22.021Z,60.00
2019-05-06T11:14:55.267Z,61.10
2019-05-06T11:17:23.311Z,60.10
2019-05-06T11:19:53.267Z,60.40
2019-05-06T11:22:24.651Z,60.30
2019-05-06T11:24:51.953Z,58.50
2019-05-06T11:27:28.954Z,56.90
2019-05-06T11:29:55.095Z,57.10
2019-05-06T11:32:25.135Z,57.20
2019-05-06T11:34:55.209Z,57.90
2019-05-06T11:37:25.238Z,57.60
2019-05-06T11:39:53.706Z,57.20
2019-05-06T11:42:30.997Z,56.40
2019-05-06T11:44:53.050Z,57.10
2019-05-06T11:47:23.293Z,57.40
2019-05-06T11:49:56.142Z,57.40
2019-05-06T11:52:23.878Z,56.40
2019-05-06T11:54:52.868Z,56.40
2019-05-06T11:57:23.152Z,54.80
2019-05-06T11:59:52.777Z,53.50
2019-05-06T12:02:23.314Z,51.70
2019-05-06T12:04:52.717Z,51.50
2019-05-06T12:07:24.503Z,50.60
2019-05-06T12:09:53.869Z,49.50
2019-05-06T12:15:12.603Z,49.00
2019-05-06T12:17:42.146Z,49.80
2019-05-06T12:20:12.930Z,51.00
2019-05-06T12:22:42.329Z,51.50
2019-05-06T12:25:15.311Z,51.90
2019-05-06T12:27:43.703Z,52.50
2019-05-06T12:30:14.114Z,54.30
2019-05-06T12:32:44.157Z,54.90
2019-05-06T12:35:12.826Z,53.90
2019-05-06T12:37:44.002Z,54.70
2019-05-06T12:40:13.106Z,54.80
2019-05-06T12:42:43.325Z,53.70
2019-05-06T12:45:14.104Z,53.30
2019-05-06T12:47:44.163Z,54.20
2019-05-06T12:50:12.843Z,53.60
2019-05-06T12:52:44.156Z,54.60
2019-05-06T12:55:21.409Z,53.50
2019-05-06T12:57:43.215Z,54.70
2019-05-06T13:00:13.309Z,53.90
2019-05-06T13:02:43.694Z,52.70
2019-05-06T13:05:13.314Z,52.70
2019-05-06T13:07:43.531Z,50.90
2019-05-06T13:10:13.110Z,50.90
2019-05-06T13:12:43.226Z,51.30
2019-05-06T13:15:13.145Z,49.20
2019-05-06T13:17:42.516Z,49.20
2019-05-06T13:20:14.674Z,47.40
2019-05-06T13:22:43.573Z,48.40
2019-05-06T13:25:13.619Z,46.70
2019-05-06T13:27:43.037Z,48.40
2019-05-06T13:30:12.925Z,50.20
2019-05-06T13:32:43.158Z,51.90
2019-05-06T13:35:12.268Z,53.10
2019-05-06T13:37:42.297Z,52.50
2019-05-06T13:40:11.234Z,51.10
2019-05-06T13:42:42.530Z,55.20
2019-05-06T13:45:12.148Z,60.00
2019-05-06T13:47:42.468Z,61.70
2019-05-06T13:50:13.105Z,63.30
2019-05-06T13:52:43.139Z,64.30
2019-05-06T13:55:12.918Z,64.30
2019-05-06T13:57:42.937Z,64.70
2019-05-06T14:00:13.535Z,65.20
2019-05-06T14:02:43.967Z,65.60
2019-05-06T14:05:12.970Z,64.70
2019-05-06T14:07:43.249Z,63.80
2019-05-06T14:10:13.188Z,63.80
2019-05-06T14:12:42.761Z,61.40
2019-05-06T14:15:12.664Z,60.30
2019-05-06T14:17:42.395Z,60.90
2019-05-06T14:20:12.553Z,61.60
2019-05-06T14:22:43.730Z,62.20
2019-05-06T14:25:13.360Z,61.20
2019-05-06T14:27:43.448Z,60.00
2019-05-06T14:30:14.038Z,59.40
2019-05-06T14:32:43.161Z,58.90
2019-05-06T14:35:12.196Z,57.50
2019-05-06T14:37:42.174Z,56.20
2019-05-06T14:40:12.902Z,54.70
2019-05-06T14:42:42.375Z,55.00
2019-05-06T14:45:14.490Z,54.80
2019-05-06T14:47:42.525Z,55.40
2019-05-06T14:50:14.487Z,55.10
2019-05-06T14:52:42.655Z,55.60
2019-05-06T14:55:15.291Z,57.40
2019-05-06T14:57:43.450Z,58.70
2019-05-06T15:00:14.019Z,61.40
2019-05-06T15:02:42.917Z,63.20
2019-05-06T15:05:13.167Z,64.80
2019-05-06T15:07:42.180Z,65.60
2019-05-06T15:10:21.942Z,67.40
2019-05-06T15:12:42.621Z,69.60
2019-05-06T15:15:12.151Z,70.00
2019-05-06T15:17:42.457Z,71.60
2019-05-06T15:20:12.103Z,70.00
2019-05-06T15:22:42.110Z,72.20
2019-05-06T15:25:12.788Z,74.30
2019-05-06T15:27:42.612Z,74.00
2019-05-06T15:30:12.975Z,73.40
2019-05-06T15:32:41.398Z,72.60
2019-05-06T15:35:12.941Z,71.90
2019-05-06T15:37:43.113Z,71.60
2019-05-06T15:40:12.228Z,72.10
2019-05-06T15:42:42.493Z,71.00
2019-05-06T15:45:12.605Z,71.20
2019-05-06T15:47:42.565Z,71.10
2019-05-06T15:50:12.773Z,70.80
2019-05-06T15:52:43.571Z,71.10
2019-05-06T15:55:12.021Z,71.00
2019-05-06T15:57:40.471Z,70.00
2019-05-06T16:00:13.029Z,69.10
2019-05-06T16:02:42.016Z,69.90
2019-05-06T16:05:14.043Z,70.00
2019-05-06T16:07:43.323Z,70.00
2019-05-06T16:10:13.263Z,70.80
2019-05-06T16:12:44.036Z,70.30
2019-05-06T16:15:13.045Z,70.80
2019-05-06T16:17:42.591Z,71.20
2019-05-06T16:20:12.960Z,70.90
2019-05-06T16:22:44.403Z,70.10
2019-05-06T16:25:14.314Z,69.50
2019-05-06T16:27:44.105Z,69.70
2019-05-06T16:30:15.262Z,69.40
2019-05-06T16:32:44.128Z,69.30
2019-05-06T16:35:14.297Z,69.80
2019-05-06T16:37:42.953Z,69.30
2019-05-06T16:40:12.409Z,69.10
2019-05-06T16:42:45.409Z,69.30
2019-05-06T16:45:12.594Z,69.60
2019-05-06T16:47:44.396Z,69.50
2019-05-06T16:50:14.554Z,69.60
2019-05-06T16:52:45.528Z,69.20
2019-05-06T16:55:15.220Z,69.50
2019-05-06T16:57:45.278Z,69.10
2019-05-06T17:00:15.548Z,69.70
2019-05-06T17:02:56.466Z,69.40
2019-05-06T17:05:17.666Z,69.60
2019-05-06T17:07:47.255Z,69.60
2019-05-06T17:10:15.870Z,69.60
2019-05-06T17:12:44.307Z,69.80
2019-05-06T17:15:13.135Z,69.80
2019-05-06T17:17:46.655Z,69.50
2019-05-06T17:20:12.323Z,69.40
2019-05-06T17:22:42.361Z,70.20
2019-05-06T17:25:11.428Z,71.20
2019-05-06T17:27:40.918Z,72.30
2019-05-06T17:30:14.040Z,72.50
2019-05-06T17:32:44.335Z,72.20
2019-05-06T17:35:13.298Z,71.60
2019-05-06T17:37:43.530Z,71.60
2019-05-06T17:40:14.304Z,72.00
2019-05-06T17:42:42.788Z,72.10
2019-05-06T17:45:14.766Z,72.40
2019-05-06T17:47:44.800Z,72.50
2019-05-06T17:50:13.386Z,72.20
2019-05-06T17:52:42.017Z,72.50
2019-05-06T17:55:11.881Z,72.30
2019-05-06T17:57:42.199Z,72.20
2019-05-06T18:00:13.062Z,72.50
2019-05-06T18:02:41.869Z,72.10
2019-05-06T18:05:12.082Z,71.90
2019-05-06T18:07:42.940Z,71.70
2019-05-06T18:10:11.986Z,71.80
2019-05-06T18:12:40.590Z,71.80
2019-05-06T18:15:09.242Z,72.00
2019-05-06T18:17:37.723Z,72.60
2019-05-06T18:20:06.791Z,72.50
2019-05-06T18:22:35.202Z,72.60
2019-05-06T18:25:05.316Z,72.50
2019-05-06T18:27:33.707Z,72.50
2019-05-06T18:30:14.321Z,73.00
2019-05-06T18:32:33.831Z,72.90
2019-05-06T18:35:02.805Z,73.10
2019-05-06T18:37:33.138Z,72.60
2019-05-06T18:40:01.594Z,72.70
2019-05-06T18:42:30.014Z,73.00
2019-05-06T18:44:58.429Z,72.40
2019-05-06T18:47:26.853Z,72.10
2019-05-06T18:49:55.262Z,71.60
2019-05-06T18:52:23.720Z,71.90
2019-05-06T18:54:52.486Z,71.90
2019-05-06T18:57:22.695Z,71.70
2019-05-06T18:59:53.365Z,71.70
2019-05-06T19:02:22.896Z,71.90
2019-05-06T19:04:53.227Z,72.30
2019-05-06T19:07:23.220Z,72.60
2019-05-06T19:09:53.262Z,72.60
2019-05-06T19:12:30.229Z,72.90
2019-05-06T19:14:52.570Z,72.80
2019-05-06T19:17:22.504Z,72.80
2019-05-06T19:19:52.009Z,73.10
2019-05-06T19:22:22.702Z,73.30
2019-05-06T19:24:52.073Z,73.30
2019-05-06T19:27:24.644Z,73.30
2019-05-06T19:29:54.300Z,73.30
2019-05-06T19:32:22.523Z,73.30
2019-05-06T19:34:53.022Z,73.20
2019-05-06T19:37:23.294Z,73.30
2019-05-06T19:39:52.616Z,73.50
2019-05-06T19:42:22.399Z,73.30
2019-05-06T19:44:52.922Z,73.30
2019-05-06T19:47:21.386Z,73.20
2019-05-06T19:49:49.798Z,73.40
2019-05-06T19:52:20.790Z,73.80
2019-05-06T19:54:49.369Z,74.00
2019-05-06T19:57:17.760Z,74.30
2019-05-06T19:59:46.186Z,74.50
2019-05-06T20:02:14.615Z,74.70
2019-05-06T20:04:44.703Z,74.80
2019-05-06T20:07:15.632Z,75.40
2019-05-06T20:09:45.751Z,75.50
2019-05-06T20:12:15.890Z,75.70
2019-05-06T20:14:44.282Z,75.60
2019-05-06T20:17:14.377Z,75.80
2019-05-06T20:19:42.788Z,75.80
2019-05-06T20:22:12.992Z,75.90
2019-05-06T20:24:42.544Z,75.90
2019-05-06T20:27:34.707Z,76.00
2019-05-06T20:30:03.570Z,76.00
2019-05-06T20:32:32.288Z,76.10
2019-05-06T20:35:00.775Z,76.10
2019-05-06T20:37:29.187Z,76.30
2019-05-06T20:39:57.595Z,76.80
2019-05-06T20:42:25.995Z,77.10
2019-05-06T20:44:54.382Z,77.00
2019-05-06T20:47:25.806Z,76.90
2019-05-06T20:49:54.302Z,76.70
2019-05-06T20:52:23.052Z,76.80
2019-05-06T20:54:51.585Z,77.00
2019-05-06T20:57:20.086Z,77.10
2019-05-06T20:59:48.510Z,77.50
2019-05-06T21:02:16.916Z,77.50
2019-05-06T21:04:45.323Z,77.50
2019-05-06T21:07:14.015Z,78.50
2019-05-06T21:09:43.241Z,79.30
2019-05-06T21:12:11.843Z,80.00
2019-05-06T21:14:42.112Z,80.00
2019-05-06T21:19:44.036Z,79.80
2019-05-06T21:22:13.245Z,80.10
2019-05-06T21:24:43.087Z,79.70
2019-05-06T21:27:13.351Z,79.40
2019-05-06T21:29:42.098Z,79.20
2019-05-06T21:32:10.628Z,79.20
2019-05-06T21:34:39.050Z,79.30
2019-05-06T21:37:07.455Z,79.60
2019-05-06T21:39:35.874Z,79.60
2019-05-06T21:42:04.334Z,79.10
2019-05-06T21:44:32.738Z,79.00
2019-05-06T21:47:02.906Z,78.60
2019-05-06T21:49:32.660Z,78.50
2019-05-06T21:52:02.171Z,78.60
2019-05-06T21:54:32.740Z,78.90
2019-05-06T21:57:02.950Z,78.70
2019-05-06T21:59:31.134Z,78.20
2019-05-06T22:01:59.539Z,77.40
2019-05-06T22:04:27.939Z,77.30
2019-05-06T22:06:56.370Z,77.50
2019-05-06T22:09:24.767Z,77.60
2019-05-06T22:11:53.196Z,76.80
2019-05-06T22:14:22.986Z,76.70
2019-05-06T22:16:51.593Z,76.80
2019-05-06T22:19:19.982Z,76.80
2019-05-06T22:21:52.166Z,77.00
2019-05-06T22:24:22.387Z,76.70
2019-05-06T22:26:52.063Z,76.30
2019-05-06T22:29:21.681Z,76.20
2019-05-06T22:31:51.841Z,76.70
2019-05-06T22:34:22.094Z,75.70
2019-05-06T22:36:51.991Z,75.10
2019-05-06T22:39:22.600Z,74.90
2019-05-06T22:41:52.028Z,74.90
2019-05-06T22:44:22.626Z,74.80
2019-05-06T22:46:50.648Z,74.30
2019-05-06T22:49:19.047Z,74.60
2019-05-06T22:51:47.438Z,74.00
2019-05-06T22:54:15.933Z,74.60
2019-05-06T22:56:44.354Z,74.50
2019-05-06T22:59:12.769Z,74.10
2019-05-06T23:01:43.277Z,74.80
2019-05-06T23:04:13.441Z,74.80
2019-05-06T23:06:41.841Z,75.50
2019-05-06T23:09:10.258Z,76.90
2019-05-06T23:11:38.835Z,78.10
2019-05-06T23:14:07.274Z,78.50
2019-05-06T23:16:35.775Z,78.00
2019-05-06T23:19:04.272Z,77.70
2019-05-06T23:21:33.716Z,77.40
2019-05-06T23:24:02.374Z,77.80
2019-05-06T23:26:30.838Z,78.40
2019-05-06T23:28:59.393Z,78.00
2019-05-06T23:31:27.825Z,78.00
2019-05-06T23:33:56.234Z,77.80
2019-05-06T23:36:24.635Z,77.90
2019-05-06T23:38:56.131Z,77.40
2019-05-06T23:41:27.610Z,77.10
2019-05-06T23:43:59.115Z,76.70
2019-05-06T23:46:32.411Z,76.40
2019-05-06T23:49:03.814Z,76.60
2019-05-06T23:51:35.274Z,76.70
2019-05-06T23:54:06.774Z,76.80
2019-05-06T23:56:38.270Z,77.00
2019-05-06T23:59:06.698Z,77.40
